Time;durP1;ratioP1;P1;durP2;ratioP2;P2;SDS_P1;SDS_P2;PMS_P1;PMS_P2;Temp;Humidity;BMP_temperature;BMP_pressure;BME280_temperature;BME280_humidity;BME280_pressure;Samples;Min_cycle;Max_cycle;Signal;HPM_P1;HPM_P2
2022/06/17 00:01:27;;;;;;;11.48;6.85;;;15.70;99.90;;;;;;5069948;28;20024;-56
2022/06/17 00:03:53;;;;;;;23.88;8.38;;;15.80;99.90;;;;;;5069477;28;20025;-56
2022/06/17 00:06:23;;;;;;;10.68;7.32;;;15.80;99.90;;;;;;5069602;28;20440;-55
2022/06/17 00:08:53;;;;;;;18.73;8.00;;;15.70;99.90;;;;;;5080317;28;20085;-56
2022/06/17 00:11:27;;;;;;;29.85;8.85;;;15.70;99.90;;;;;;5089126;28;20024;-54
2022/06/17 00:13:53;;;;;;;21.13;8.50;;;15.60;99.90;;;;;;5090206;28;20012;-57
2022/06/17 00:16:21;;;;;;;16.58;7.82;;;15.60;99.90;;;;;;5089036;28;20099;-56
2022/06/17 00:18:47;;;;;;;22.38;7.63;;;15.60;99.90;;;;;;5089170;28;20019;-54
2022/06/17 00:21:27;;;;;;;14.02;7.03;;;15.60;99.90;;;;;;5073087;28;20028;-56
2022/06/17 00:23:53;;;;;;;20.65;7.38;;;15.60;99.90;;;;;;5088058;28;20028;-55
2022/06/17 00:26:20;;;;;;;16.27;7.72;;;15.50;99.90;;;;;;5085686;28;20028;-54
2022/06/17 00:28:47;;;;;;;11.90;7.97;;;15.50;99.90;;;;;;5070367;28;20115;-56
2022/06/17 00:31:14;;;;;;;23.17;8.30;;;15.40;99.90;;;;;;5068400;28;20476;-57
2022/06/17 00:33:40;;;;;;;20.45;8.10;;;15.50;99.90;;;;;;5101003;28;20056;-56
2022/06/17 00:36:09;;;;;;;13.50;8.10;;;15.50;99.90;;;;;;5076149;28;20166;-54
2022/06/17 00:38:36;;;;;;;18.92;7.88;;;15.50;99.90;;;;;;5082834;28;20024;-55
2022/06/17 00:41:25;;;;;;;27.15;8.18;;;15.50;99.90;;;;;;5072579;28;20194;-55
2022/06/17 00:43:51;;;;;;;28.75;7.82;;;15.40;99.90;;;;;;5069078;28;20039;-55
2022/06/17 00:46:38;;;;;;;20.83;8.00;;;15.40;99.90;;;;;;5069124;28;20028;-55
2022/06/17 00:49:41;;;;;;;18.20;8.30;;;15.30;99.90;;;;;;5069477;28;20024;-55
2022/06/17 00:52:34;;;;;;;28.83;9.15;;;15.30;99.90;;;;;;5055918;28;20036;-56
2022/06/17 00:55:24;;;;;;;14.63;7.35;;;15.20;99.90;;;;;;5069817;28;20279;-56
2022/06/17 00:57:50;;;;;;;19.65;7.20;;;15.20;99.90;;;;;;5085043;28;20032;-53
2022/06/17 01:00:27;;;;;;;15.20;7.55;;;15.10;99.90;;;;;;5069173;28;20380;-56
2022/06/17 01:03:05;;;;;;;22.52;8.40;;;15.10;99.90;;;;;;5081084;28;20036;-55
2022/06/17 01:05:52;;;;;;;14.52;8.20;;;15.10;99.90;;;;;;5068776;28;20502;-55
2022/06/17 01:11:31;;;;;;;20.75;8.15;;;15.10;99.90;;;;;;5073791;28;20067;-56
2022/06/17 01:13:59;;;;;;;19.75;8.68;;;15.00;99.90;;;;;;5089239;28;20058;-56
2022/06/17 01:16:33;;;;;;;21.58;8.68;;;15.00;99.90;;;;;;5080929;28;20197;-54
2022/06/17 01:19:04;;;;;;;22.83;8.57;;;14.90;99.90;;;;;;5071223;28;20055;-56
2022/06/17 01:21:39;;;;;;;12.50;8.10;;;14.90;99.90;;;;;;5090727;28;20073;-55
2022/06/17 01:24:07;;;;;;;12.63;7.70;;;14.90;99.90;;;;;;5072377;28;20387;-56
2022/06/17 01:26:34;;;;;;;17.92;9.63;;;15.00;99.90;;;;;;5072802;28;20469;-54
2022/06/17 01:29:00;;;;;;;29.80;9.07;;;15.00;99.90;;;;;;5080120;28;20073;-56
2022/06/17 01:31:25;;;;;;;22.15;8.43;;;14.90;99.90;;;;;;5076334;28;20021;-55
2022/06/17 01:33:51;;;;;;;15.35;8.15;;;14.90;99.90;;;;;;5090723;28;20024;-55
2022/06/17 01:36:28;;;;;;;19.27;8.82;;;14.70;99.90;;;;;;5086514;28;20565;-56
2022/06/17 01:38:59;;;;;;;19.58;8.75;;;14.70;99.90;;;;;;5072800;28;20052;-55
2022/06/17 01:41:29;;;;;;;15.60;9.25;;;14.70;99.90;;;;;;5079529;28;20054;-56
2022/06/17 01:43:56;;;;;;;24.35;7.78;;;14.60;99.90;;;;;;5079892;28;20025;-55
2022/06/17 01:46:27;;;;;;;21.33;8.68;;;14.60;99.90;;;;;;5071851;28;20050;-53
2022/06/17 01:48:59;;;;;;;22.05;7.75;;;14.50;99.90;;;;;;5071683;28;20024;-56
2022/06/17 01:51:27;;;;;;;20.00;8.60;;;14.40;99.90;;;;;;5073130;28;20058;-55
2022/06/17 01:53:56;;;;;;;16.77;8.45;;;14.40;99.90;;;;;;5072426;28;20023;-56
2022/06/17 01:56:28;;;;;;;14.90;8.50;;;14.40;99.90;;;;;;5073038;28;20442;-55
2022/06/17 01:59:08;;;;;;;26.08;7.78;;;14.40;99.90;;;;;;5072072;28;20025;-55
2022/06/17 02:01:37;;;;;;;18.02;7.47;;;14.40;99.90;;;;;;5071542;28;20562;-57
2022/06/17 02:04:11;;;;;;;16.75;8.10;;;14.30;99.90;;;;;;5071410;28;20027;-55
2022/06/17 02:06:53;;;;;;;14.43;7.20;;;14.30;99.90;;;;;;5080108;28;20513;-55
2022/06/17 02:09:19;;;;;;;14.75;7.90;;;14.20;99.90;;;;;;5090848;28;20032;-55
2022/06/17 02:11:46;;;;;;;19.27;8.98;;;14.30;99.90;;;;;;5075400;28;20024;-55
2022/06/17 02:14:12;;;;;;;17.88;8.50;;;14.30;99.90;;;;;;5083829;28;20078;-56
2022/06/17 02:16:45;;;;;;;24.67;9.70;;;14.20;99.90;;;;;;5091175;28;20024;-53
2022/06/17 02:19:11;;;;;;;20.50;8.47;;;14.20;99.90;;;;;;5091864;28;20084;-56
2022/06/17 02:21:45;;;;;;;11.18;8.63;;;14.10;99.90;;;;;;5090221;28;20492;-56
2022/06/17 02:24:11;;;;;;;11.07;8.38;;;14.10;99.90;;;;;;5091853;28;20118;-55
2022/06/17 02:26:40;;;;;;;25.13;7.90;;;14.10;99.90;;;;;;5089411;28;20020;-55
2022/06/17 02:29:09;;;;;;;16.60;8.13;;;14.00;99.90;;;;;;5090835;28;20031;-56
2022/06/17 02:31:35;;;;;;;17.23;8.57;;;13.90;99.90;;;;;;5080365;28;20025;-56
2022/06/17 02:34:04;;;;;;;20.92;9.82;;;13.80;99.90;;;;;;5071792;28;20059;-56
2022/06/17 02:36:37;;;;;;;19.52;8.90;;;13.80;99.90;;;;;;5077331;28;20058;-56
2022/06/17 02:39:04;;;;;;;14.32;9.02;;;13.80;99.90;;;;;;5090505;28;20024;-55
2022/06/17 02:41:30;;;;;;;22.70;9.00;;;13.70;99.90;;;;;;5076964;28;20112;-53
2022/06/17 02:44:33;;;;;;;38.40;8.88;;;13.80;99.90;;;;;;5105441;28;20028;-55
2022/06/17 02:47:01;;;;;;;17.67;8.27;;;13.60;99.90;;;;;;5085294;28;20186;-56
2022/06/17 02:49:32;;;;;;;14.48;7.35;;;13.60;99.90;;;;;;5091288;28;20111;-52
2022/06/17 02:52:00;;;;;;;22.30;9.13;;;13.60;99.90;;;;;;5091650;28;20039;-53
2022/06/17 02:54:35;;;;;;;17.73;9.00;;;13.70;99.90;;;;;;5092083;28;20043;-56
2022/06/17 02:57:03;;;;;;;23.65;9.10;;;13.60;99.90;;;;;;5089913;28;20031;-55
2022/06/17 02:59:48;;;;;;;18.23;9.07;;;13.60;99.90;;;;;;5090388;28;20450;-55
2022/06/17 03:02:24;;;;;;;18.55;8.23;;;13.60;99.90;;;;;;5091312;28;20036;-56
2022/06/17 03:04:51;;;;;;;20.48;8.70;;;13.60;99.90;;;;;;5091950;28;20073;-55
2022/06/17 03:07:20;;;;;;;19.23;8.55;;;13.60;99.90;;;;;;5091245;28;20048;-54
2022/06/17 03:09:47;;;;;;;17.55;8.20;;;13.60;99.90;;;;;;5091757;28;20201;-52
2022/06/17 03:12:19;;;;;;;14.35;9.43;;;13.60;99.90;;;;;;5091491;28;20027;-53
2022/06/17 03:15:22;;;;;;;21.80;8.23;;;13.60;99.90;;;;;;5091687;28;20069;-61
2022/06/17 03:17:47;;;;;;;17.17;8.75;;;13.60;99.90;;;;;;5068550;28;20424;-53
2022/06/17 03:20:26;;;;;;;17.52;9.00;;;13.60;99.90;;;;;;5087140;28;20123;-52
2022/06/17 03:22:59;;;;;;;14.63;9.30;;;13.50;99.90;;;;;;5076534;28;20074;-52
2022/06/17 03:25:38;;;;;;;21.67;8.45;;;13.60;99.90;;;;;;5089503;28;20028;-55
2022/06/17 03:28:08;;;;;;;12.43;8.38;;;13.60;99.90;;;;;;5078678;28;20032;-54
2022/06/17 03:30:38;;;;;;;28.60;9.80;;;13.70;99.90;;;;;;5087593;28;20016;-52
2022/06/17 03:33:17;;;;;;;14.52;8.27;;;13.70;99.90;;;;;;5107026;28;20024;-51
2022/06/17 03:35:46;;;;;;;14.55;8.65;;;13.70;99.90;;;;;;5090757;28;20122;-54
2022/06/17 03:38:29;;;;;;;18.80;7.68;;;13.80;99.90;;;;;;5086202;28;20016;-52
2022/06/17 03:41:02;;;;;;;20.70;7.85;;;13.80;99.90;;;;;;5080239;28;20037;-53
2022/06/17 03:43:38;;;;;;;14.98;9.40;;;13.80;99.90;;;;;;5071255;28;20258;-52
2022/06/17 03:46:06;;;;;;;13.68;8.55;;;13.80;99.90;;;;;;5070743;28;20518;-52
2022/06/17 03:48:47;;;;;;;16.73;9.20;;;13.80;99.90;;;;;;5071313;28;20120;-52
2022/06/17 03:51:21;;;;;;;15.75;9.80;;;13.80;99.90;;;;;;5071035;28;20119;-50
2022/06/17 03:53:48;;;;;;;29.13;9.48;;;13.80;99.90;;;;;;5069713;28;20070;-50
2022/06/17 03:56:22;;;;;;;19.63;8.90;;;13.80;99.90;;;;;;5070839;28;20035;-53
2022/06/17 03:58:49;;;;;;;20.48;9.80;;;13.80;99.90;;;;;;5071508;28;20044;-52
2022/06/17 04:01:40;;;;;;;14.13;9.50;;;13.70;99.90;;;;;;5076259;28;20114;-50
2022/06/17 04:04:17;;;;;;;14.82;8.18;;;13.80;99.90;;;;;;5090841;28;20103;-52
2022/06/17 04:06:46;;;;;;;17.65;9.00;;;13.80;99.90;;;;;;5081562;28;20082;-51
2022/06/17 04:09:19;;;;;;;15.82;8.93;;;13.90;99.90;;;;;;5103155;28;20120;-51
2022/06/17 04:11:52;;;;;;;13.13;8.40;;;14.00;99.90;;;;;;5070983;28;20396;-52
2022/06/17 04:14:27;;;;;;;16.92;9.65;;;14.00;99.90;;;;;;5070723;28;20059;-53
2022/06/17 04:17:14;;;;;;;13.45;9.60;;;14.20;99.90;;;;;;5085327;28;20081;-51
2022/06/17 04:19:42;;;;;;;19.75;11.32;;;14.30;99.90;;;;;;5090781;28;20286;-51
2022/06/17 04:22:25;;;;;;;13.38;8.20;;;14.40;99.90;;;;;;5088945;28;20032;-55
2022/06/17 04:25:06;;;;;;;14.60;9.93;;;14.60;99.90;;;;;;5090987;28;20034;-53
2022/06/17 04:30:23;;;;;;;10.57;8.88;;;14.70;99.90;;;;;;5073224;28;20082;-54
2022/06/17 04:32:55;;;;;;;12.82;9.30;;;14.60;99.90;;;;;;5071182;28;20031;-53
2022/06/17 04:35:20;;;;;;;13.23;8.50;;;14.60;99.90;;;;;;5070279;28;20052;-54
2022/06/17 04:37:46;;;;;;;19.75;10.57;;;14.70;99.90;;;;;;5075466;28;20052;-52
2022/06/17 04:40:34;;;;;;;10.25;8.90;;;14.70;99.90;;;;;;5070097;28;20070;-51
2022/06/17 04:43:05;;;;;;;20.02;9.35;;;14.70;99.90;;;;;;5070854;28;20028;-55
2022/06/17 04:45:31;;;;;;;10.85;9.20;;;14.80;99.90;;;;;;5070422;28;20036;-52
2022/06/17 04:47:57;;;;;;;13.38;8.77;;;14.80;99.90;;;;;;5070879;28;20074;-54
2022/06/17 04:50:26;;;;;;;9.80;8.82;;;14.90;99.90;;;;;;5068427;28;20028;-52
2022/06/17 04:52:54;;;;;;;15.30;8.77;;;15.00;99.90;;;;;;5088246;28;20104;-52
2022/06/17 04:55:25;;;;;;;10.57;8.75;;;15.10;99.90;;;;;;5083871;28;20032;-53
2022/06/17 04:57:50;;;;;;;12.50;8.57;;;15.20;99.90;;;;;;5076417;28;20111;-55
2022/06/17 05:00:24;;;;;;;12.05;8.13;;;15.30;99.90;;;;;;5092077;28;20119;-53
2022/06/17 05:02:50;;;;;;;12.23;7.72;;;15.40;99.90;;;;;;5093519;28;20040;-50
2022/06/17 05:05:31;;;;;;;11.35;8.43;;;15.60;99.90;;;;;;5074714;28;20035;-53
2022/06/17 05:07:58;;;;;;;10.35;8.63;;;15.60;99.90;;;;;;5085719;28;20459;-54
2022/06/17 05:10:31;;;;;;;14.07;8.55;;;15.60;99.90;;;;;;5094084;28;20020;-55
2022/06/17 05:13:23;;;;;;;;;;;15.60;99.90;;;;;;5076316;28;20020;-54
2022/06/17 05:15:50;;;;;;;17.02;10.02;;;15.60;99.90;;;;;;5065207;28;20401;-54
2022/06/17 05:18:17;;;;;;;19.38;9.50;;;15.60;99.90;;;;;;5089883;28;20032;-55
2022/06/17 05:20:44;;;;;;;14.93;9.27;;;15.70;99.90;;;;;;5095244;28;20020;-54
2022/06/17 05:23:12;;;;;;;10.88;8.90;;;15.80;99.90;;;;;;5093087;28;20028;-52
2022/06/17 05:25:40;;;;;;;13.30;8.98;;;16.00;99.90;;;;;;5093342;28;20028;-55
2022/06/17 05:28:10;;;;;;;9.48;8.45;;;16.10;99.90;;;;;;5076213;28;20421;-55
2022/06/17 05:30:42;;;;;;;13.88;8.65;;;16.30;99.90;;;;;;5091165;28;20078;-55
2022/06/17 05:33:12;;;;;;;9.52;7.88;;;16.40;99.90;;;;;;5071211;28;20047;-54
2022/06/17 05:35:38;;;;;;;9.77;7.55;;;16.80;99.90;;;;;;5074376;28;20024;-54
2022/06/17 05:38:03;;;;;;;12.60;7.82;;;16.90;99.90;;;;;;5089449;28;20498;-54
2022/06/17 05:40:29;;;;;;;11.68;8.35;;;17.10;99.90;;;;;;5071474;28;20110;-52
2022/06/17 05:42:55;;;;;;;8.60;7.60;;;17.10;99.90;;;;;;5071305;28;20035;-53
2022/06/17 05:45:26;;;;;;;14.82;8.73;;;17.20;99.90;;;;;;5069634;28;20036;-55
2022/06/17 05:47:52;;;;;;;16.15;8.63;;;17.20;99.90;;;;;;5086364;28;20031;-54
2022/06/17 05:50:19;;;;;;;17.25;9.57;;;17.20;99.90;;;;;;5071364;28;20040;-53
2022/06/17 05:52:52;;;;;;;12.10;8.57;;;17.30;99.90;;;;;;5071308;28;20100;-53
2022/06/17 05:55:20;;;;;;;16.98;8.77;;;17.30;99.90;;;;;;5071139;28;20099;-53
2022/06/17 05:57:45;;;;;;;13.95;9.05;;;17.40;99.90;;;;;;5073279;28;20079;-56
2022/06/17 06:00:12;;;;;;;13.60;10.18;;;17.50;99.90;;;;;;5072690;28;20554;-52
2022/06/17 06:02:38;;;;;;;10.57;8.95;;;17.50;99.90;;;;;;5072704;28;20115;-56
2022/06/17 06:05:04;;;;;;;15.50;8.57;;;17.60;99.90;;;;;;5072237;28;20109;-55
2022/06/17 06:07:30;;;;;;;11.23;8.25;;;17.70;99.90;;;;;;5076824;28;20514;-54
2022/06/17 06:09:55;;;;;;;11.77;8.23;;;17.90;99.90;;;;;;5088478;28;20115;-55
2022/06/17 06:12:21;;;;;;;15.02;10.60;;;18.20;99.90;;;;;;5090780;28;20027;-55
2022/06/17 06:14:47;;;;;;;16.60;8.00;;;18.20;99.90;;;;;;5093250;28;20214;-53
2022/06/17 06:17:13;;;;;;;9.88;8.88;;;18.40;99.90;;;;;;5078318;28;20531;-54
2022/06/17 06:19:39;;;;;;;14.82;9.40;;;18.60;99.90;;;;;;5085027;28;20520;-56
2022/06/17 06:22:05;;;;;;;8.38;6.97;;;18.70;99.90;;;;;;5090751;28;20028;-54
2022/06/17 06:24:30;;;;;;;11.63;8.38;;;18.70;99.90;;;;;;5092824;28;20046;-53
2022/06/17 06:26:56;;;;;;;8.82;7.72;;;18.90;99.90;;;;;;5089661;28;20554;-55
2022/06/17 06:29:22;;;;;;;12.95;7.68;;;19.10;99.90;;;;;;5082111;28;20028;-55
2022/06/17 06:31:48;;;;;;;11.48;7.80;;;19.20;99.90;;;;;;5072413;28;20025;-53
2022/06/17 06:34:16;;;;;;;8.52;7.30;;;19.40;99.90;;;;;;5070751;28;20028;-54
2022/06/17 06:36:42;;;;;;;12.48;7.13;;;19.50;99.90;;;;;;5074379;28;20383;-54
2022/06/17 06:39:09;;;;;;;12.68;6.47;;;19.50;99.90;;;;;;5092172;28;20027;-56
2022/06/17 06:41:36;;;;;;;9.70;5.07;;;19.50;99.90;;;;;;5090361;28;20275;-55
2022/06/17 06:44:01;;;;;;;8.43;5.28;;;19.70;99.90;;;;;;5090422;28;20090;-54
2022/06/17 06:46:27;;;;;;;10.52;5.80;;;19.90;99.90;;;;;;5091652;28;20483;-54
2022/06/17 06:48:53;;;;;;;10.00;5.25;;;20.10;99.90;;;;;;5092117;28;20732;-62
2022/06/17 06:51:20;;;;;;;14.88;5.60;;;20.30;99.90;;;;;;5092434;28;20032;-56
2022/06/17 06:53:46;;;;;;;13.38;5.30;;;20.40;99.90;;;;;;5093359;28;20043;-55
2022/06/17 06:56:12;;;;;;;11.75;4.82;;;20.40;99.90;;;;;;5093230;28;20024;-54
2022/06/17 06:58:38;;;;;;;9.02;4.38;;;20.40;99.90;;;;;;5087765;28;20032;-56
2022/06/17 07:01:04;;;;;;;15.63;4.68;;;20.50;99.90;;;;;;5085146;28;20438;-55
2022/06/17 07:03:31;;;;;;;15.60;4.82;;;20.50;99.90;;;;;;5085750;28;20050;-54
2022/06/17 07:06:00;;;;;;;8.77;4.72;;;20.60;99.90;;;;;;5073960;28;20024;-56
2022/06/17 07:08:29;;;;;;;9.55;5.45;;;20.80;99.90;;;;;;5073257;28;20029;-54
2022/06/17 07:10:59;;;;;;;9.80;4.85;;;20.80;99.90;;;;;;5083474;28;20020;-56
2022/06/17 07:13:40;;;;;;;8.55;4.68;;;20.70;99.90;;;;;;5094991;28;20030;-49
2022/06/17 07:16:08;;;;;;;12.15;7.72;;;20.80;99.90;;;;;;5091267;28;20020;-53
2022/06/17 07:18:36;;;;;;;9.82;5.00;;;21.00;99.90;;;;;;5090453;28;20024;-54
2022/06/17 07:21:06;;;;;;;11.27;4.95;;;21.00;99.90;;;;;;5091426;28;20514;-54
2022/06/17 07:23:50;;;;;;;7.03;4.60;;;21.30;99.90;;;;;;5091389;28;20032;-54
2022/06/17 07:26:20;;;;;;;14.70;5.78;;;21.30;99.90;;;;;;5089937;28;20495;-52
2022/06/17 07:28:48;;;;;;;16.63;4.97;;;21.20;99.70;;;;;;5080965;28;20043;-54
2022/06/17 07:31:14;;;;;;;14.05;5.22;;;21.30;99.90;;;;;;5076938;28;20035;-53
2022/06/17 07:33:40;;;;;;;7.30;4.55;;;21.20;99.70;;;;;;5090249;28;20020;-52
2022/06/17 07:36:07;;;;;;;14.25;4.88;;;21.50;99.90;;;;;;5089988;28;20375;-56
2022/06/17 07:41:23;;;;;;;8.38;5.10;;;21.40;99.60;;;;;;5090841;28;20051;-51
2022/06/17 07:43:49;;;;;;;6.00;4.40;;;21.50;99.80;;;;;;5090902;28;20028;-53
2022/06/17 07:46:15;;;;;;;5.28;4.05;;;21.50;99.90;;;;;;5082488;28;20028;-51
2022/06/17 07:48:42;;;;;;;10.65;5.00;;;21.70;99.20;;;;;;5089530;28;20016;-52
2022/06/17 07:51:09;;;;;;;10.05;4.80;;;21.80;99.10;;;;;;5090008;28;20024;-54
2022/06/17 07:53:35;;;;;;;13.25;6.00;;;21.60;98.10;;;;;;5090930;28;20428;-54
2022/06/17 07:56:04;;;;;;;12.23;4.60;;;21.60;97.70;;;;;;5091399;28;20103;-53
2022/06/17 07:58:30;;;;;;;12.73;5.35;;;21.80;99.10;;;;;;5090778;28;20012;-53
2022/06/17 08:00:56;;;;;;;8.05;3.92;;;22.20;97.80;;;;;;5090096;28;20016;-54
2022/06/17 08:03:22;;;;;;;7.32;4.65;;;22.30;98.10;;;;;;5089169;28;20024;-54
2022/06/17 08:05:51;;;;;;;7.00;4.40;;;22.30;97.90;;;;;;5089059;28;20051;-53
2022/06/17 08:08:21;;;;;;;12.82;4.32;;;22.50;97.50;;;;;;5089889;28;20079;-53
2022/06/17 08:10:49;;;;;;;8.25;4.07;;;22.70;96.50;;;;;;5088527;28;20024;-54
2022/06/17 08:13:14;;;;;;;8.88;4.10;;;22.80;96.70;;;;;;5090235;28;20099;-54
2022/06/17 08:15:40;;;;;;;7.15;4.88;;;22.70;95.70;;;;;;5090084;28;20087;-54
2022/06/17 08:18:06;;;;;;;10.60;4.85;;;22.80;96.40;;;;;;5090128;28;20024;-52
2022/06/17 08:20:34;;;;;;;5.68;4.63;;;22.70;95.00;;;;;;5090954;28;20028;-53
2022/06/17 08:23:02;;;;;;;9.13;4.65;;;22.80;94.90;;;;;;5089430;28;20032;-54
2022/06/17 08:25:28;;;;;;;13.52;4.35;;;22.80;94.50;;;;;;5089469;28;20081;-52
2022/06/17 08:27:56;;;;;;;6.93;4.40;;;22.90;94.80;;;;;;5089476;28;20035;-54
2022/06/17 08:30:26;;;;;;;7.78;4.75;;;23.50;94.00;;;;;;5088592;28;20644;-56
2022/06/17 08:32:53;;;;;;;8.00;4.80;;;23.80;94.70;;;;;;5087282;28;20062;-54
2022/06/17 08:35:35;;;;;;;7.40;4.10;;;24.00;94.70;;;;;;5089913;28;20022;-55
2022/06/17 08:38:09;;;;;;;9.77;4.68;;;24.10;92.70;;;;;;5088672;28;20117;-54
2022/06/17 08:40:52;;;;;;;6.95;4.20;;;24.10;94.00;;;;;;5075303;28;20060;-55
2022/06/17 08:43:28;;;;;;;;;;;24.30;94.40;;;;;;5073349;28;20070;-56
2022/06/17 08:46:16;;;;;;;10.88;4.15;;;24.50;93.60;;;;;;5090492;28;19923;-54
2022/06/17 08:49:15;;;;;;;14.45;4.10;;;25.20;93.70;;;;;;5090938;28;20340;-57
2022/06/17 08:52:00;;;;;;;7.63;4.47;;;25.10;92.70;;;;;;5090160;28;20411;-51
2022/06/17 08:54:34;;;;;;;14.30;4.97;;;25.20;92.60;;;;;;5084805;28;20029;-55
2022/06/17 08:57:12;;;;;;;9.70;3.97;;;25.20;92.30;;;;;;5090760;28;20058;-56
2022/06/17 08:59:56;;;;;;;5.82;4.28;;;25.10;93.00;;;;;;5091123;28;20584;-55
2022/06/17 09:02:33;;;;;;;6.95;3.88;;;24.80;92.50;;;;;;5090676;28;20374;-56
2022/06/17 09:05:24;;;;;;;14.23;3.80;;;24.40;93.10;;;;;;5090895;28;20024;-54
2022/06/17 09:08:14;;;;;;;7.47;4.25;;;23.90;93.40;;;;;;5090791;28;20436;-56
2022/06/17 09:10:57;;;;;;;8.52;4.63;;;23.60;93.90;;;;;;5090186;28;20013;-56
2022/06/17 09:13:45;;;;;;;8.00;4.15;;;23.30;93.90;;;;;;5090788;28;20016;-54
2022/06/17 09:16:22;;;;;;;9.73;4.47;;;23.30;93.50;;;;;;5090818;28;20031;-54
2022/06/17 09:18:55;;;;;;;8.35;4.50;;;23.10;94.90;;;;;;5090782;28;20012;-56
2022/06/17 09:21:30;;;;;;;7.18;5.20;;;23.20;94.50;;;;;;5090615;28;20619;-53
2022/06/17 09:24:04;;;;;;;10.35;4.70;;;23.30;94.80;;;;;;5090641;28;20027;-57
2022/06/17 09:26:41;;;;;;;8.32;4.47;;;23.70;95.60;;;;;;5090753;28;20020;-55
2022/06/17 09:29:28;;;;;;;12.02;4.55;;;24.30;94.10;;;;;;5090370;28;20020;-56
2022/06/17 09:32:22;;;;;;;9.93;3.95;;;24.70;93.30;;;;;;5090438;28;20047;-54
2022/06/17 09:35:04;;;;;;;11.55;4.22;;;24.90;93.00;;;;;;5073098;28;20024;-56
2022/06/17 09:37:43;;;;;;;9.90;4.30;;;25.20;92.10;;;;;;5090253;28;20024;-52
2022/06/17 09:40:12;;;;;;;12.50;4.63;;;25.10;90.50;;;;;;5092489;28;20043;-54
2022/06/17 09:42:40;;;;;;;12.80;4.07;;;25.40;91.60;;;;;;5094357;28;20545;-56
2022/06/17 09:45:09;;;;;;;8.23;3.90;;;26.00;93.90;;;;;;5094159;28;20071;-57
2022/06/17 09:47:46;;;;;;;8.73;3.80;;;26.10;92.30;;;;;;5093892;28;20069;-55
2022/06/17 09:50:20;;;;;;;5.20;4.32;;;26.50;92.80;;;;;;5094048;28;20121;-56
2022/06/17 09:53:16;;;;;;;12.77;5.05;;;26.20;89.50;;;;;;5093895;28;20048;-53
2022/06/17 09:55:48;;;;;;;10.45;4.40;;;25.80;87.50;;;;;;5090243;28;20036;-55
2022/06/17 09:58:22;;;;;;;6.90;4.47;;;25.70;89.10;;;;;;5073021;28;20035;-57
2022/06/17 10:00:51;;;;;;;8.93;4.53;;;25.60;86.70;;;;;;5073715;28;20020;-56
2022/06/17 10:03:19;;;;;;;7.38;4.57;;;25.10;88.10;;;;;;5074478;28;20086;-56
2022/06/17 10:06:06;;;;;;;11.43;5.03;;;25.00;90.20;;;;;;5073834;28;20039;-55
2022/06/17 10:08:37;;;;;;;10.25;4.63;;;25.30;88.80;;;;;;5089961;28;20028;-55
2022/06/17 10:11:22;;;;;;;11.88;4.45;;;25.70;90.20;;;;;;5093351;28;20258;-56
2022/06/17 10:14:26;;;;;;;6.88;4.70;;;25.70;82.90;;;;;;5093942;28;20048;-57
2022/06/17 10:20:11;;;;;;;6.72;3.30;;;26.00;83.30;;;;;;5060352;28;20424;-52
2022/06/17 10:22:49;;;;;;;5.78;3.20;;;26.20;77.50;;;;;;5076339;28;20048;-57
2022/06/17 10:25:33;;;;;;;9.40;3.13;;;26.90;81.40;;;;;;5083681;28;20024;-55
2022/06/17 10:28:22;;;;;;;10.85;3.10;;;26.60;75.80;;;;;;5101450;28;20032;-53
2022/06/17 10:31:19;;;;;;;7.50;3.03;;;26.50;74.90;;;;;;5086782;28;20048;-55
2022/06/17 10:33:45;;;;;;;10.05;2.80;;;27.10;71.70;;;;;;5081409;28;20048;-55
2022/06/17 10:36:11;;;;;;;8.32;2.83;;;27.40;71.00;;;;;;5088229;28;20066;-56
2022/06/17 10:38:43;;;;;;;7.68;3.10;;;27.40;70.20;;;;;;5085211;28;20016;-56
2022/06/17 10:41:10;;;;;;;4.05;2.90;;;26.60;67.50;;;;;;5097020;28;20548;-56
2022/06/17 10:43:43;;;;;;;10.20;2.80;;;26.60;68.50;;;;;;5098901;28;20036;-55
2022/06/17 10:46:32;;;;;;;7.93;3.20;;;26.40;70.30;;;;;;5081977;28;20047;-55
2022/06/17 10:49:21;;;;;;;8.65;3.63;;;26.70;71.20;;;;;;5081839;28;20027;-52
2022/06/17 10:51:50;;;;;;;19.70;2.95;;;26.80;68.00;;;;;;5079976;28;20128;-56
2022/06/17 10:54:23;;;;;;;5.32;3.22;;;27.30;69.50;;;;;;5080982;28;20028;-53
2022/06/17 10:57:10;;;;;;;10.32;4.43;;;27.30;68.10;;;;;;5088327;28;20114;-56
2022/06/17 10:59:39;;;;;;;6.78;3.00;;;27.30;65.80;;;;;;5079673;28;20071;-56
2022/06/17 11:02:05;;;;;;;7.35;3.78;;;27.50;72.80;;;;;;5080943;28;20055;-56
2022/06/17 11:04:36;;;;;;;9.68;2.97;;;27.90;66.40;;;;;;5080251;28;20479;-54
2022/06/17 11:07:27;;;;;;;14.05;3.90;;;27.70;63.20;;;;;;5095935;28;20032;-56
2022/06/17 11:09:57;;;;;;;8.63;2.95;;;27.70;66.50;;;;;;5070481;28;20738;-56
2022/06/17 11:12:35;;;;;;;9.25;3.20;;;28.00;62.60;;;;;;5101304;28;20024;-56
2022/06/17 11:15:17;;;;;;;11.30;4.20;;;27.30;60.70;;;;;;5092161;28;20501;-55
2022/06/17 11:17:46;;;;;;;5.65;3.03;;;27.50;62.10;;;;;;5091291;28;20543;-55
2022/06/17 11:20:30;;;;;;;6.72;2.88;;;27.40;62.50;;;;;;5100640;28;20066;-56
2022/06/17 11:23:07;;;;;;;4.30;2.58;;;27.80;61.20;;;;;;5086441;28;20024;-54
2022/06/17 11:25:35;;;;;;;4.68;2.75;;;27.00;61.60;;;;;;5080709;28;20032;-55
2022/06/17 11:28:22;;;;;;;7.07;3.10;;;26.80;63.90;;;;;;5096166;28;20482;-56
2022/06/17 11:30:57;;;;;;;7.80;3.00;;;27.30;66.30;;;;;;5100220;28;20044;-56
2022/06/17 11:33:26;;;;;;;5.75;2.30;;;27.80;66.30;;;;;;5098240;28;20036;-56
2022/06/17 11:36:19;;;;;;;4.35;3.13;;;28.00;59.20;;;;;;5100188;28;20024;-55
2022/06/17 11:38:45;;;;;;;8.15;3.30;;;28.50;63.00;;;;;;5094657;28;20031;-55
2022/06/17 11:41:23;;;;;;;9.68;2.83;;;27.20;60.00;;;;;;5098015;28;20130;-56
2022/06/17 11:43:49;;;;;;;3.50;2.95;;;27.80;62.40;;;;;;5080250;28;20036;-57
2022/06/17 11:46:24;;;;;;;18.00;3.45;;;27.90;60.90;;;;;;5079520;28;20130;-56
2022/06/17 11:49:13;;;;;;;9.35;2.80;;;27.80;62.50;;;;;;5080580;28;21915;-56
2022/06/17 11:51:47;;;;;;;14.05;2.70;;;27.50;63.30;;;;;;5079175;28;20381;-54
2022/06/17 11:54:30;;;;;;;9.38;2.90;;;28.30;63.40;;;;;;5078448;28;20039;-56
2022/06/17 11:56:56;;;;;;;;;;;27.30;62.20;;;;;;5079889;28;20024;-55
2022/06/17 11:59:26;;;;;;;5.78;2.80;;;26.90;60.80;;;;;;5078392;28;19999;-57
2022/06/17 12:01:54;;;;;;;5.63;2.45;;;27.70;65.60;;;;;;5078670;28;20067;-56
2022/06/17 12:04:49;;;;;;;10.98;2.88;;;28.50;66.20;;;;;;5063814;28;20036;-55
2022/06/17 12:07:20;;;;;;;16.38;3.78;;;29.10;59.80;;;;;;5078639;28;20038;-57
2022/06/17 12:09:49;;;;;;;3.47;2.75;;;28.40;59.50;;;;;;5079046;28;20036;-55
2022/06/17 12:12:17;;;;;;;5.30;3.10;;;28.10;60.90;;;;;;5080402;28;20059;-57
2022/06/17 12:15:01;;;;;;;9.70;2.67;;;27.90;59.30;;;;;;5090772;28;20004;-55
2022/06/17 12:17:28;;;;;;;4.25;2.83;;;28.20;63.20;;;;;;5090810;28;20046;-57
2022/06/17 12:19:55;;;;;;;6.60;2.60;;;27.90;63.00;;;;;;5090721;28;20073;-54
2022/06/17 12:22:44;;;;;;;9.00;3.10;;;27.80;61.80;;;;;;5090606;28;20024;-54
2022/06/17 12:25:37;;;;;;;5.82;2.88;;;27.40;60.60;;;;;;5090519;28;20072;-55
2022/06/17 12:28:22;;;;;;;4.63;2.53;;;28.30;58.90;;;;;;5090776;28;20028;-55
2022/06/17 12:31:01;;;;;;;10.90;3.33;;;27.70;60.70;;;;;;5091016;28;20141;-55
2022/06/17 12:33:56;;;;;;;6.22;2.88;;;27.60;66.60;;;;;;5090428;28;20074;-54
2022/06/17 12:36:31;;;;;;;5.05;2.60;;;27.60;61.50;;;;;;5088258;28;20071;-57
2022/06/17 12:39:11;;;;;;;7.45;2.58;;;28.00;60.00;;;;;;5077817;28;20032;-57
2022/06/17 12:42:03;;;;;;;11.68;3.30;;;29.00;58.40;;;;;;5070246;28;20116;-57
2022/06/17 12:44:38;;;;;;;6.10;2.90;;;29.90;57.90;;;;;;5069990;28;20045;-58
2022/06/17 12:47:03;;;;;;;5.03;2.42;;;32.00;56.30;;;;;;5070231;28;20013;-56
2022/06/17 12:53:15;;;;;;;12.57;2.35;;;32.90;52.90;;;;;;5083802;28;20494;-56
2022/06/17 12:55:59;;;;;;;4.65;2.75;;;31.70;51.20;;;;;;5086618;28;20577;-55
2022/06/17 12:58:31;;;;;;;11.57;2.50;;;31.30;52.50;;;;;;5073522;28;20035;-56
2022/06/17 13:01:02;;;;;;;16.85;2.47;;;31.60;54.20;;;;;;5082066;28;20674;-56
2022/06/17 13:03:43;;;;;;;5.60;2.08;;;32.70;51.40;;;;;;5089980;28;20065;-56
2022/06/17 13:06:29;;;;;;;3.92;2.08;;;33.00;51.80;;;;;;5090347;28;20523;-56
2022/06/17 13:09:21;;;;;;;6.82;2.25;;;32.90;49.20;;;;;;5073150;28;20106;-56
2022/06/17 13:11:56;;;;;;;2.27;1.67;;;33.30;48.30;;;;;;5069577;28;20508;-56
2022/06/17 13:14:48;;;;;;;5.22;2.22;;;33.40;47.80;;;;;;5071029;28;20116;-55
2022/06/17 13:17:38;;;;;;;12.57;2.17;;;32.00;48.10;;;;;;5082952;28;20036;-55
2022/06/17 13:20:41;;;;;;;7.25;2.80;;;32.20;50.40;;;;;;5091268;28;20082;-56
2022/06/17 13:23:26;;;;;;;6.13;2.28;;;34.30;50.80;;;;;;5073723;28;20122;-56
2022/06/17 13:25:59;;;;;;;6.57;1.98;;;33.60;46.70;;;;;;5089807;28;20177;-56
2022/06/17 13:28:35;;;;;;;3.63;1.90;;;33.80;48.00;;;;;;5091883;28;20052;-56